createdAt,value
2023-05-25T07:45:06.604Z,101485.75
2023-05-25T07:47:08.767Z,101485.53
2023-05-25T07:49:16.399Z,101476.78
2023-05-25T07:51:18.502Z,101478.19
2023-05-25T07:53:21.599Z,101470.78
2023-05-25T07:55:23.666Z,101468.34
2023-05-25T07:57:25.981Z,101482.03
2023-05-25T07:59:28.032Z,101482.56
2023-05-25T08:01:30.174Z,101490.75
2023-05-25T08:03:48.275Z,101486.41
2023-05-25T08:05:52.105Z,101491.34
2023-05-25T08:07:54.726Z,101486.16
2023-05-25T08:09:56.719Z,101485.88
2023-05-25T08:12:18.703Z,101481.47
2023-05-25T08:14:21.106Z,101480.59
2023-05-25T08:16:23.200Z,101485.00
2023-05-25T08:18:25.293Z,101479.53
2023-05-25T08:20:28.145Z,101489.13
2023-05-25T08:22:30.321Z,101475.72
2023-05-25T08:24:32.341Z,101481.91
2023-05-25T08:26:52.854Z,101487.31
2023-05-25T08:28:56.527Z,101482.91
2023-05-25T08:30:58.782Z,101480.44
2023-05-25T08:33:01.049Z,101472.78
2023-05-25T08:35:03.694Z,101471.53
2023-05-25T08:37:05.690Z,101479.47
2023-05-25T08:39:08.500Z,101469.63
2023-05-25T08:41:10.551Z,101470.47
2023-05-25T08:43:12.604Z,101476.25
2023-05-25T08:45:30.436Z,101469.81
2023-05-25T08:47:39.094Z,101481.19
2023-05-25T08:49:41.857Z,101459.72
2023-05-25T08:51:49.902Z,101483.03
2023-05-25T08:53:51.961Z,101473.91
2023-05-25T08:55:54.756Z,101475.72
2023-05-25T08:58:24.104Z,101476.41
2023-05-25T09:00:29.273Z,101471.19
2023-05-25T09:02:51.301Z,101478.22
2023-05-25T09:04:53.488Z,101480.31
2023-05-25T09:07:09.042Z,101471.00
2023-05-25T09:09:12.678Z,101478.47
2023-05-25T09:11:17.395Z,101464.59
2023-05-25T09:13:22.497Z,101474.03
2023-05-25T09:15:25.162Z,101478.97
2023-05-25T09:17:27.400Z,101480.47
2023-05-25T09:19:29.544Z,101475.09
2023-05-25T09:21:31.729Z,101473.84
2023-05-25T09:23:35.563Z,101473.56
2023-05-25T09:25:37.596Z,101471.53
2023-05-25T09:27:39.730Z,101479.47
2023-05-25T09:29:41.796Z,101471.00
2023-05-25T09:31:44.006Z,101464.19
2023-05-25T09:33:46.602Z,101463.81
2023-05-25T09:35:48.588Z,101472.78
2023-05-25T09:37:50.787Z,101468.91
2023-05-25T09:39:52.952Z,101468.16
2023-05-25T09:41:54.998Z,101470.31
2023-05-25T09:44:06.489Z,101474.00
2023-05-25T09:46:13.480Z,101482.13
2023-05-25T09:48:15.692Z,101472.56
2023-05-25T09:50:18.100Z,101481.56
2023-05-25T09:52:20.912Z,101486.16
2023-05-25T09:54:23.364Z,101486.78
2023-05-25T09:56:26.557Z,101475.34
2023-05-25T09:58:28.655Z,101473.31
2023-05-25T10:00:30.961Z,101481.31
2023-05-25T10:02:33.042Z,101482.47
2023-05-25T10:04:35.212Z,101481.41
2023-05-25T10:06:38.769Z,101474.31
2023-05-25T10:08:41.302Z,101478.22
2023-05-25T10:10:43.503Z,101476.09
2023-05-25T10:12:46.053Z,101474.28
2023-05-25T10:14:49.848Z,101480.50
2023-05-25T10:16:53.742Z,101479.13
2023-05-25T10:19:06.399Z,101485.66
2023-05-25T10:21:08.641Z,101481.28
2023-05-25T10:23:12.596Z,101485.13
2023-05-25T10:25:35.314Z,101480.66
2023-05-25T10:27:43.197Z,101489.28
2023-05-25T10:29:47.915Z,101487.22
2023-05-25T10:31:49.976Z,101485.00
2023-05-25T10:33:52.708Z,101480.25
2023-05-25T10:36:03.149Z,101472.75
2023-05-25T10:38:12.904Z,101498.59
2023-05-25T10:40:15.313Z,101483.19
2023-05-25T10:42:18.564Z,101490.13
2023-05-25T10:44:20.995Z,101483.63
2023-05-25T10:46:23.156Z,101490.97
2023-05-25T10:48:38.793Z,101503.69
2023-05-25T10:50:41.078Z,101483.38
2023-05-25T10:52:43.120Z,101490.78
2023-05-25T10:54:45.273Z,101485.75
2023-05-25T10:57:14.279Z,101480.69
2023-05-25T10:59:16.408Z,101472.75
2023-05-25T11:01:18.499Z,101480.13
2023-05-25T11:03:20.837Z,101478.28
2023-05-25T11:05:31.150Z,101480.34
2023-05-25T11:07:33.196Z,101475.09
2023-05-25T11:09:38.831Z,101474.94
2023-05-25T11:11:43.881Z,101468.22
2023-05-25T11:13:47.342Z,101456.25
2023-05-25T11:16:29.563Z,101464.81
2023-05-25T11:18:38.573Z,101458.19
2023-05-25T11:20:41.855Z,101465.31
2023-05-25T11:22:44.864Z,101465.81
2023-05-25T11:24:56.125Z,101472.81
2023-05-25T11:27:01.585Z,101456.47
2023-05-25T11:29:14.987Z,101462.38
2023-05-25T11:31:17.857Z,101467.25
2023-05-25T11:33:22.378Z,101458.31
2023-05-25T11:35:26.601Z,101453.19
2023-05-25T11:37:29.136Z,101450.59
2023-05-25T11:39:34.184Z,101451.44
2023-05-25T11:41:36.512Z,101448.28
2023-05-25T11:43:38.588Z,101452.72
2023-05-25T11:45:41.526Z,101453.81
2023-05-25T11:47:43.776Z,101451.47
2023-05-25T11:49:47.380Z,101452.00
2023-05-25T11:51:49.398Z,101445.47
2023-05-25T11:53:51.751Z,101443.00
2023-05-25T11:56:00.521Z,101436.00
2023-05-25T11:58:09.888Z,101438.84
2023-05-25T12:00:13.643Z,101462.72
2023-05-25T12:02:15.859Z,101436.56
2023-05-25T12:04:17.995Z,101446.06
2023-05-25T12:06:36.797Z,101436.06
2023-05-25T12:08:39.115Z,101442.00
2023-05-25T12:10:52.134Z,101434.41
2023-05-25T12:12:58.386Z,101443.31
2023-05-25T12:15:00.541Z,101432.91
2023-05-25T12:17:02.692Z,101444.59
2023-05-25T12:19:05.032Z,101438.75
2023-05-25T12:21:08.396Z,101439.22
2023-05-25T12:23:10.504Z,101441.63
2023-05-25T12:25:13.308Z,101433.84
2023-05-25T12:27:19.233Z,101430.81
2023-05-25T12:29:21.405Z,101437.00
2023-05-25T12:31:24.440Z,101430.25
2023-05-25T12:33:26.607Z,101432.13
2023-05-25T12:35:29.528Z,101432.75
2023-05-25T12:37:31.715Z,101425.09
2023-05-25T12:39:35.383Z,101433.50
2023-05-25T12:41:54.264Z,101431.44
2023-05-25T12:43:57.830Z,101427.66
2023-05-25T12:46:00.171Z,101426.72
2023-05-25T12:48:02.523Z,101427.69
2023-05-25T12:50:13.453Z,101425.84
2023-05-25T12:52:35.508Z,101422.94
2023-05-25T12:54:42.222Z,101418.44
2023-05-25T12:56:59.713Z,101424.03
2023-05-25T12:59:15.329Z,101411.69
2023-05-25T13:01:17.395Z,101414.03
2023-05-25T13:03:20.208Z,101418.63
2023-05-25T13:05:27.219Z,101426.22
2023-05-25T13:07:30.218Z,101421.41
2023-05-25T13:09:33.051Z,101418.31
2023-05-25T13:11:35.096Z,101420.59
2023-05-25T13:13:37.500Z,101423.56
2023-05-25T13:15:39.437Z,101412.41
2023-05-25T13:17:45.102Z,101409.56
2023-05-25T13:19:47.168Z,101421.59
2023-05-25T13:21:52.446Z,101413.09
2023-05-25T13:23:54.782Z,101407.69
2023-05-25T13:25:56.763Z,101406.25
2023-05-25T13:28:01.117Z,101413.22
2023-05-25T13:30:07.064Z,101422.13
2023-05-25T13:32:09.236Z,101410.97
2023-05-25T13:34:11.794Z,101411.00
2023-05-25T13:36:15.425Z,101405.34
2023-05-25T13:38:17.684Z,101405.47
2023-05-25T13:40:19.753Z,101393.94
2023-05-25T13:42:21.969Z,101393.72
2023-05-25T13:44:24.023Z,101401.63
2023-05-25T13:46:34.822Z,101397.16
2023-05-25T13:48:37.530Z,101401.69
2023-05-25T13:50:39.508Z,101393.28
2023-05-25T13:52:41.616Z,101393.25
2023-05-25T13:54:43.693Z,101391.91
2023-05-25T13:56:45.844Z,101389.97
2023-05-25T13:58:48.081Z,101385.50
2023-05-25T14:00:50.185Z,101390.75
2023-05-25T14:02:52.322Z,101386.50
2023-05-25T14:04:55.183Z,101388.41
2023-05-25T14:06:57.243Z,101379.81
2023-05-25T14:08:59.302Z,101385.47
2023-05-25T14:11:01.552Z,101381.03
2023-05-25T14:13:03.620Z,101374.78
2023-05-25T14:15:07.007Z,101377.75
2023-05-25T14:17:09.051Z,101368.34
2023-05-25T14:19:11.326Z,101368.91
2023-05-25T14:21:13.447Z,101383.88
2023-05-25T14:23:18.483Z,101369.63
2023-05-25T14:25:20.861Z,101369.13
2023-05-25T14:27:23.069Z,101375.47
2023-05-25T14:29:25.116Z,101377.28
2023-05-25T14:31:27.217Z,101374.19
2023-05-25T14:33:29.309Z,101370.56
2023-05-25T14:35:31.437Z,101378.59
2023-05-25T14:37:33.523Z,101379.34
2023-05-25T14:39:36.416Z,101373.88
2023-05-25T14:41:38.452Z,101378.22
2023-05-25T14:43:40.520Z,101375.31
2023-05-25T14:45:42.667Z,101374.81
2023-05-25T14:47:44.852Z,101374.25
2023-05-25T14:49:46.936Z,101375.28
2023-05-25T14:51:49.012Z,101384.44
2023-05-25T14:53:51.265Z,101379.91
2023-05-25T14:55:53.296Z,101380.22
2023-05-25T14:57:55.502Z,101377.28
2023-05-25T14:59:57.634Z,101370.81
2023-05-25T15:01:59.750Z,101377.50
2023-05-25T15:04:01.917Z,101375.63
2023-05-25T15:06:04.192Z,101368.84
2023-05-25T15:08:06.254Z,101371.25
2023-05-25T15:10:08.907Z,101370.91
2023-05-25T15:12:11.112Z,101366.06
2023-05-25T15:14:13.188Z,101362.31
2023-05-25T15:16:16.230Z,101363.78
2023-05-25T15:18:18.420Z,101365.13
2023-05-25T15:20:20.616Z,101359.19
2023-05-25T15:22:22.746Z,101365.88
2023-05-25T15:24:24.818Z,101368.59
2023-05-25T15:26:26.903Z,101374.16
2023-05-25T15:28:29.036Z,101373.69
2023-05-25T15:30:33.249Z,101376.50
2023-05-25T15:32:35.429Z,101380.84
2023-05-25T15:34:37.506Z,101372.28
2023-05-25T15:36:39.590Z,101373.72
2023-05-25T15:38:43.363Z,101372.72
2023-05-25T15:40:45.591Z,101371.06
2023-05-25T15:42:47.622Z,101380.16
2023-05-25T15:44:49.697Z,101379.44
2023-05-25T15:46:51.804Z,101371.31
2023-05-25T15:48:54.441Z,101381.19
2023-05-25T15:50:56.539Z,101375.63
2023-05-25T15:52:58.615Z,101371.28
2023-05-25T15:55:00.845Z,101372.06
2023-05-25T15:57:02.888Z,101375.22
2023-05-25T15:59:05.125Z,101376.78
2023-05-25T16:01:07.193Z,101382.78
2023-05-25T16:03:09.261Z,101384.81
2023-05-25T16:05:11.302Z,101384.00
2023-05-25T16:07:14.280Z,101382.81
2023-05-25T16:09:17.024Z,101379.97
2023-05-25T16:11:19.397Z,101382.91
2023-05-25T16:13:21.435Z,101389.75
2023-05-25T16:15:23.788Z,101392.25
2023-05-25T16:17:26.486Z,101386.75
2023-05-25T16:19:28.535Z,101384.75
2023-05-25T16:21:30.753Z,101374.91
2023-05-25T16:23:32.792Z,101376.44
2023-05-25T16:25:34.877Z,101373.44
2023-05-25T16:27:37.045Z,101377.75
2023-05-25T16:29:39.123Z,101382.09
2023-05-25T16:31:41.178Z,101367.44
2023-05-25T16:33:45.526Z,101373.09
2023-05-25T16:35:47.845Z,101372.50
2023-05-25T16:37:49.790Z,101370.13
2023-05-25T16:39:51.860Z,101370.31
2023-05-25T16:41:54.003Z,101375.78
2023-05-25T16:43:56.171Z,101372.22
2023-05-25T16:45:58.289Z,101371.06
2023-05-25T16:48:00.552Z,101370.47
2023-05-25T16:50:02.684Z,101377.66
2023-05-25T16:52:05.285Z,101377.84
2023-05-25T16:54:07.399Z,101380.78
2023-05-25T16:56:09.598Z,101381.78
2023-05-25T16:58:11.645Z,101378.88
2023-05-25T17:00:14.378Z,101382.63
2023-05-25T17:02:16.462Z,101393.09
2023-05-25T17:04:18.614Z,101384.38
2023-05-25T17:06:20.763Z,101379.44
2023-05-25T17:08:22.852Z,101383.69
2023-05-25T17:10:24.908Z,101381.06
2023-05-25T17:12:27.027Z,101375.06
2023-05-25T17:14:29.285Z,101382.22
2023-05-25T17:16:31.341Z,101388.88
2023-05-25T17:18:33.540Z,101389.66
2023-05-25T17:20:35.774Z,101382.69
2023-05-25T17:22:38.553Z,101387.25
2023-05-25T17:24:40.624Z,101381.75
2023-05-25T17:26:42.632Z,101386.56
2023-05-25T17:28:44.740Z,101386.72
2023-05-25T17:30:48.474Z,101391.97
2023-05-25T17:32:51.165Z,101393.59
2023-05-25T17:34:53.207Z,101399.75
2023-05-25T17:36:55.257Z,101393.03
2023-05-25T17:38:57.329Z,101403.69
2023-05-25T17:40:59.395Z,101406.06
2023-05-25T17:43:01.472Z,101412.56
2023-05-25T17:45:03.637Z,101407.53
2023-05-25T17:47:09.169Z,101413.19
2023-05-25T17:49:13.045Z,101411.31
2023-05-25T17:51:15.229Z,101415.69
2023-05-25T17:53:17.409Z,101412.53
2023-05-25T17:55:20.770Z,101433.69
2023-05-25T17:57:22.936Z,101424.53
2023-05-25T17:59:24.978Z,101415.72
2023-05-25T18:01:27.178Z,101417.41
2023-05-25T18:03:29.620Z,101427.84
2023-05-25T18:05:31.779Z,101423.38
2023-05-25T18:07:33.910Z,101429.97
2023-05-25T18:09:35.999Z,101426.22
2023-05-25T18:11:38.121Z,101433.44
2023-05-25T18:13:40.401Z,101437.72
2023-05-25T18:15:42.759Z,101440.47
2023-05-25T18:17:44.979Z,101443.81
2023-05-25T18:19:47.358Z,101443.31
2023-05-25T18:21:49.435Z,101442.38
2023-05-25T18:23:51.591Z,101444.31
2023-05-25T18:25:53.748Z,101441.38
2023-05-25T18:27:55.913Z,101449.16
2023-05-25T18:29:58.984Z,101455.25
2023-05-25T18:32:01.028Z,101457.34
2023-05-25T18:34:03.082Z,101457.22
2023-05-25T18:36:05.628Z,101459.44
2023-05-25T18:38:07.596Z,101464.44
2023-05-25T18:40:12.904Z,101477.34
2023-05-25T18:42:14.996Z,101463.88
2023-05-25T18:44:17.094Z,101467.13
2023-05-25T18:46:19.668Z,101474.84
2023-05-25T18:48:23.685Z,101480.66
2023-05-25T18:50:25.835Z,101477.59
2023-05-25T18:52:27.925Z,101480.56
2023-05-25T18:54:30.010Z,101477.41
2023-05-25T18:56:32.058Z,101473.75
2023-05-25T18:58:34.089Z,101475.84
2023-05-25T19:00:36.198Z,101477.16
2023-05-25T19:02:38.886Z,101486.44
2023-05-25T19:04:41.130Z,101484.88
2023-05-25T19:06:43.158Z,101480.91
2023-05-25T19:08:45.204Z,101490.03
2023-05-25T19:10:47.266Z,101492.19
2023-05-25T19:12:49.335Z,101490.28
2023-05-25T19:14:51.394Z,101492.72
2023-05-25T19:16:53.473Z,101487.75
2023-05-25T19:18:55.651Z,101491.63
2023-05-25T19:20:58.464Z,101495.97
2023-05-25T19:23:00.739Z,101502.56
2023-05-25T19:25:02.865Z,101506.19
2023-05-25T19:27:05.657Z,101508.97
2023-05-25T19:29:07.748Z,101512.00
2023-05-25T19:31:09.862Z,101512.22
2023-05-25T19:33:12.054Z,101513.66
2023-05-25T19:35:14.122Z,101514.78
2023-05-25T19:37:16.394Z,101518.91
2023-05-25T19:39:18.695Z,101524.34
2023-05-25T19:41:21.399Z,101524.66
2023-05-25T19:43:23.601Z,101533.91
2023-05-25T19:45:25.776Z,101535.28
2023-05-25T19:47:27.840Z,101531.97
2023-05-25T19:49:29.911Z,101530.31
2023-05-25T19:51:33.051Z,101537.66
2023-05-25T19:53:35.163Z,101544.19
2023-05-25T19:55:37.853Z,101545.28
2023-05-25T19:57:39.918Z,101555.03
2023-05-25T19:59:42.017Z,101546.59
2023-05-25T20:01:44.296Z,101548.75
2023-05-25T20:03:46.625Z,101547.63
2023-05-25T20:05:48.832Z,101553.91
2023-05-25T20:07:52.418Z,101556.09
2023-05-25T20:09:54.453Z,101561.47
2023-05-25T20:11:58.184Z,101561.19
2023-05-25T20:14:00.247Z,101560.41
2023-05-25T20:16:02.416Z,101565.56
2023-05-25T20:18:04.571Z,101566.06
2023-05-25T20:20:07.334Z,101563.31
2023-05-25T20:22:09.530Z,101567.09
2023-05-25T20:24:11.621Z,101566.03
2023-05-25T20:26:13.694Z,101565.09
2023-05-25T20:28:16.000Z,101569.94
2023-05-25T20:30:18.107Z,101564.56
2023-05-25T20:32:20.242Z,101572.28
2023-05-25T20:34:22.346Z,101567.38
2023-05-25T20:36:24.466Z,101568.22
2023-05-25T20:38:26.530Z,101559.53
2023-05-25T20:40:28.583Z,101565.78
2023-05-25T20:42:30.636Z,101565.66
2023-05-25T20:44:33.085Z,101567.56
2023-05-25T20:46:36.472Z,101560.75
2023-05-25T20:48:39.418Z,101557.88
2023-05-25T20:50:41.469Z,101566.03
2023-05-25T20:52:43.550Z,101561.38
2023-05-25T20:54:45.696Z,101567.06
2023-05-25T20:56:48.380Z,101562.16
2023-05-25T20:58:50.524Z,101560.25
2023-05-25T21:00:52.577Z,101565.38
2023-05-25T21:02:54.766Z,101575.38
2023-05-25T21:04:56.957Z,101570.94
2023-05-25T21:06:58.994Z,101566.75
2023-05-25T21:09:01.658Z,101572.50
2023-05-25T21:11:03.772Z,101570.56
2023-05-25T21:13:05.842Z,101580.03
2023-05-25T21:15:08.514Z,101580.25
2023-05-25T21:17:10.739Z,101573.41
2023-05-25T21:19:12.782Z,101577.91
2023-05-25T21:21:15.925Z,101570.53
2023-05-25T21:23:18.082Z,101586.25
2023-05-25T21:25:20.578Z,101583.47
2023-05-25T21:27:22.648Z,101591.84
2023-05-25T21:29:24.919Z,101586.59
2023-05-25T21:31:27.045Z,101584.97
2023-05-25T21:33:30.963Z,101591.97
2023-05-25T21:35:33.028Z,101585.84
2023-05-25T21:37:35.166Z,101593.28
2023-05-25T21:39:37.232Z,101589.94
2023-05-25T21:41:41.338Z,101585.53
2023-05-25T21:43:43.479Z,101578.31
2023-05-25T21:45:45.857Z,101585.31
2023-05-25T21:47:48.251Z,101585.00
2023-05-25T21:49:50.583Z,101572.19
2023-05-25T21:51:52.621Z,101579.50
2023-05-25T21:53:54.635Z,101585.06
2023-05-25T21:55:56.692Z,101584.53
2023-05-25T21:57:58.814Z,101576.72
2023-05-25T22:00:01.005Z,101576.72
2023-05-25T22:02:03.128Z,101582.00
2023-05-25T22:04:05.206Z,101579.84
2023-05-25T22:06:07.457Z,101583.00
2023-05-25T22:08:09.508Z,101584.84
2023-05-25T22:10:11.682Z,101584.38
2023-05-25T22:12:13.824Z,101591.03
2023-05-25T22:14:15.935Z,101585.03
2023-05-25T22:16:18.090Z,101588.25
2023-05-25T22:18:20.289Z,101586.44
2023-05-25T22:20:22.356Z,101589.06
2023-05-25T22:22:24.428Z,101593.78
2023-05-25T22:24:26.492Z,101593.94
2023-05-25T22:26:29.305Z,101593.19
2023-05-25T22:28:31.265Z,101583.78
2023-05-25T22:30:33.524Z,101596.91
2023-05-25T22:32:35.694Z,101593.38
2023-05-25T22:34:37.772Z,101592.88
2023-05-25T22:36:39.840Z,101589.97
2023-05-25T22:38:42.135Z,101601.88
2023-05-25T22:40:47.580Z,101588.38
2023-05-25T22:42:50.496Z,101602.25
2023-05-25T22:44:52.828Z,101591.91
2023-05-25T22:46:55.022Z,101590.13
2023-05-25T22:48:57.187Z,101593.22
2023-05-25T22:50:59.253Z,101584.25
2023-05-25T22:53:01.580Z,101588.75
2023-05-25T22:55:03.908Z,101592.41
2023-05-25T22:57:06.869Z,101590.28
2023-05-25T22:59:08.923Z,101595.25
2023-05-25T23:01:11.089Z,101595.84
2023-05-25T23:03:13.317Z,101599.75
2023-05-25T23:05:15.590Z,101595.41
2023-05-25T23:07:17.693Z,101589.72
2023-05-25T23:09:19.722Z,101594.34
2023-05-25T23:11:21.822Z,101597.50
2023-05-25T23:13:24.358Z,101597.28
2023-05-25T23:15:26.483Z,101594.69
2023-05-25T23:17:28.579Z,101592.34
2023-05-25T23:19:30.657Z,101595.63
2023-05-25T23:21:33.738Z,101591.97
2023-05-25T23:23:36.197Z,101600.00
2023-05-25T23:25:38.339Z,101589.88
2023-05-25T23:27:40.559Z,101595.84
2023-05-25T23:29:42.671Z,101603.28
2023-05-25T23:31:44.780Z,101591.63
2023-05-25T23:33:46.866Z,101608.69
2023-05-25T23:35:48.887Z,101601.75
2023-05-25T23:37:52.125Z,101603.50
2023-05-25T23:39:54.267Z,101601.94
2023-05-25T23:41:56.569Z,101610.78
2023-05-25T23:43:58.682Z,101608.53
2023-05-25T23:46:01.318Z,101612.53
2023-05-25T23:48:03.465Z,101595.38
2023-05-25T23:50:06.221Z,101602.78
2023-05-25T23:52:08.175Z,101598.03
2023-05-25T23:54:10.479Z,101594.06
2023-05-25T23:56:12.530Z,101598.38
2023-05-25T23:58:14.610Z,101587.00
